createdAt,value
2022-08-16T00:00:38.773Z,17.48
2022-08-16T00:03:13.693Z,17.33
2022-08-16T00:05:47.831Z,17.30
2022-08-16T00:08:35.634Z,17.31
2022-08-16T00:11:06.388Z,17.22
2022-08-16T00:13:41.775Z,17.23
2022-08-16T00:17:01.536Z,17.30
2022-08-16T00:19:00.326Z,17.32
2022-08-16T00:21:29.198Z,17.29
2022-08-16T00:23:57.410Z,17.25
2022-08-16T00:26:35.816Z,17.21
2022-08-16T00:29:05.977Z,17.22
2022-08-16T00:31:59.995Z,17.16
2022-08-16T00:34:44.114Z,17.15
2022-08-16T00:37:12.091Z,17.16
2022-08-16T00:39:45.335Z,17.07
2022-08-16T00:42:30.723Z,17.11
2022-08-16T00:45:09.681Z,17.06
2022-08-16T00:47:53.386Z,17.03
2022-08-16T00:50:36.641Z,17.00
2022-08-16T00:53:06.085Z,17.00
2022-08-16T00:55:37.915Z,16.94
2022-08-16T00:58:12.982Z,16.92
2022-08-16T01:00:44.372Z,16.95
2022-08-16T01:03:29.995Z,16.96
2022-08-16T01:05:57.929Z,16.95
2022-08-16T01:08:35.252Z,16.96
2022-08-16T01:11:06.884Z,16.93
2022-08-16T01:13:37.827Z,16.92
2022-08-16T01:16:11.889Z,16.89
2022-08-16T01:19:00.539Z,16.89
2022-08-16T01:21:44.657Z,16.83
2022-08-16T01:24:52.529Z,16.86
2022-08-16T01:27:17.490Z,16.80
2022-08-16T01:30:03.702Z,16.77
2022-08-16T01:32:36.529Z,16.79
2022-08-16T01:35:17.064Z,16.75
2022-08-16T01:37:54.035Z,16.74
2022-08-16T01:40:26.513Z,16.71
2022-08-16T01:42:55.674Z,16.70
2022-08-16T01:45:24.253Z,16.70
2022-08-16T01:48:15.669Z,16.66
2022-08-16T01:51:08.811Z,16.69
2022-08-16T01:53:40.574Z,16.64
2022-08-16T01:56:08.899Z,16.59
2022-08-16T01:58:51.327Z,16.52
2022-08-16T02:01:18.864Z,16.52
2022-08-16T02:03:50.493Z,16.53
2022-08-16T02:06:33.795Z,16.53
2022-08-16T02:09:05.164Z,16.51
2022-08-16T02:11:48.256Z,16.52
2022-08-16T02:14:26.269Z,16.52
2022-08-16T02:16:55.334Z,16.50
2022-08-16T02:19:59.254Z,16.47
2022-08-16T02:22:34.603Z,16.43
2022-08-16T02:25:10.581Z,16.40
2022-08-16T02:27:40.943Z,16.37
2022-08-16T02:30:36.778Z,16.34
2022-08-16T02:33:03.885Z,16.34
2022-08-16T02:35:32.315Z,16.18
2022-08-16T02:38:01.724Z,16.15
2022-08-16T02:40:37.433Z,16.14
2022-08-16T02:43:04.915Z,16.20
2022-08-16T02:45:33.006Z,16.11
2022-08-16T02:48:30.480Z,16.12
2022-08-16T02:50:54.088Z,16.11
2022-08-16T02:53:30.935Z,16.13
2022-08-16T02:55:59.194Z,16.06
2022-08-16T02:58:29.220Z,16.10
2022-08-16T03:00:58.019Z,16.13
2022-08-16T03:04:41.008Z,16.12
2022-08-16T03:06:41.934Z,16.11
2022-08-16T03:09:05.359Z,16.13
2022-08-16T03:11:35.529Z,16.14
2022-08-16T03:14:07.465Z,16.18
2022-08-16T03:16:39.153Z,16.10
2022-08-16T03:19:10.010Z,16.10
2022-08-16T03:21:38.778Z,16.09
2022-08-16T03:24:29.215Z,16.13
2022-08-16T03:27:04.601Z,16.11
2022-08-16T03:29:34.291Z,16.13
2022-08-16T03:32:04.000Z,16.15
2022-08-16T03:34:33.823Z,16.13
2022-08-16T03:37:01.768Z,16.11
2022-08-16T03:39:29.675Z,16.18
2022-08-16T03:42:01.095Z,16.14
2022-08-16T03:44:44.809Z,16.17
2022-08-16T03:47:18.650Z,16.18
2022-08-16T03:49:52.400Z,16.24
2022-08-16T03:52:23.960Z,16.19
2022-08-16T03:54:59.736Z,16.19
2022-08-16T03:57:31.983Z,16.18
2022-08-16T04:00:36.271Z,16.26
2022-08-16T04:03:07.482Z,16.28
2022-08-16T04:05:40.554Z,16.24
2022-08-16T04:08:22.942Z,16.36
2022-08-16T04:10:54.903Z,16.30
2022-08-16T04:14:00.236Z,16.31
2022-08-16T04:16:27.682Z,16.29
2022-08-16T04:19:02.434Z,16.37
2022-08-16T04:21:45.984Z,16.47
2022-08-16T04:24:14.846Z,16.51
2022-08-16T04:26:45.874Z,16.60
2022-08-16T04:29:23.232Z,16.62
2022-08-16T04:31:56.698Z,16.66
2022-08-16T04:34:32.427Z,16.70
2022-08-16T04:37:01.263Z,16.76
2022-08-16T04:39:47.471Z,16.80
2022-08-16T04:42:24.079Z,16.97
2022-08-16T04:44:56.217Z,17.10
2022-08-16T04:47:31.629Z,17.22
2022-08-16T04:50:01.682Z,17.36
2022-08-16T04:52:33.469Z,17.52
2022-08-16T04:55:02.175Z,17.60
2022-08-16T04:57:30.901Z,17.78
2022-08-16T04:59:58.906Z,17.95
2022-08-16T05:02:46.733Z,18.21
2022-08-16T05:05:22.989Z,18.48
2022-08-16T05:07:59.506Z,18.79
2022-08-16T05:10:29.573Z,19.04
2022-08-16T05:12:58.859Z,19.30
2022-08-16T05:15:26.567Z,19.58
2022-08-16T05:17:59.131Z,19.89
2022-08-16T05:20:35.622Z,20.19
2022-08-16T05:23:13.804Z,20.49
2022-08-16T05:25:48.355Z,20.75
2022-08-16T05:28:19.252Z,21.06
2022-08-16T05:30:50.534Z,21.31
2022-08-16T05:33:18.361Z,21.55
2022-08-16T05:35:54.889Z,21.79
2022-08-16T05:38:33.307Z,22.05
2022-08-16T05:41:07.522Z,22.29
2022-08-16T05:43:43.649Z,22.48
2022-08-16T05:46:30.013Z,22.78
2022-08-16T05:49:06.588Z,23.05
2022-08-16T05:51:39.969Z,23.32
2022-08-16T05:54:09.645Z,23.55
2022-08-16T05:56:40.118Z,23.72
2022-08-16T05:59:08.275Z,23.93
2022-08-16T06:01:38.296Z,24.18
2022-08-16T06:04:13.587Z,24.42
2022-08-16T06:06:57.264Z,24.73
2022-08-16T06:09:42.571Z,24.95
2022-08-16T06:12:11.517Z,25.04
2022-08-16T06:14:40.023Z,25.28
2022-08-16T06:17:08.366Z,25.46
2022-08-16T06:19:36.007Z,25.65
2022-08-16T06:22:03.335Z,25.88
2022-08-16T06:24:53.390Z,25.95
2022-08-16T06:27:18.092Z,26.23
2022-08-16T06:29:50.209Z,26.50
2022-08-16T06:32:27.697Z,26.67
2022-08-16T06:35:02.270Z,27.01
2022-08-16T06:37:37.477Z,27.26
2022-08-16T06:40:12.732Z,27.46
2022-08-16T06:42:47.824Z,27.70
2022-08-16T06:45:15.850Z,27.99
2022-08-16T06:47:54.334Z,28.16
2022-08-16T06:50:28.897Z,28.15
2022-08-16T06:53:09.242Z,28.25
2022-08-16T06:55:38.315Z,28.49
2022-08-16T06:58:08.335Z,28.76
2022-08-16T07:00:37.471Z,28.94
2022-08-16T07:03:27.887Z,29.25
2022-08-16T07:05:54.195Z,29.52
2022-08-16T07:08:22.213Z,29.60
2022-08-16T07:10:55.875Z,29.66
2022-08-16T07:13:57.755Z,29.86
2022-08-16T07:16:15.357Z,30.20
2022-08-16T07:18:59.072Z,30.26
2022-08-16T07:21:46.411Z,30.39
2022-08-16T07:24:30.356Z,30.75
2022-08-16T07:27:01.832Z,30.99
2022-08-16T07:29:31.808Z,30.79
2022-08-16T07:32:01.081Z,30.48
2022-08-16T07:34:35.678Z,30.27
2022-08-16T07:37:07.898Z,30.11
2022-08-16T07:39:43.062Z,29.88
2022-08-16T07:42:20.321Z,29.58
2022-08-16T07:44:59.529Z,29.51
2022-08-16T07:47:31.409Z,29.46
2022-08-16T07:50:05.661Z,29.42
2022-08-16T07:52:49.095Z,29.35
2022-08-16T07:55:18.841Z,29.37
2022-08-16T07:57:59.825Z,29.30
2022-08-16T08:00:30.784Z,29.31
2022-08-16T08:03:00.648Z,29.41
2022-08-16T08:05:35.897Z,29.38
2022-08-16T08:08:11.433Z,29.36
2022-08-16T08:10:52.734Z,29.39
2022-08-16T08:13:20.209Z,29.38
2022-08-16T08:16:07.532Z,29.38
2022-08-16T08:18:50.418Z,29.44
2022-08-16T08:21:27.594Z,29.54
2022-08-16T08:24:15.586Z,29.66
2022-08-16T08:26:43.835Z,29.81
2022-08-16T08:29:13.465Z,29.84
2022-08-16T08:31:42.692Z,30.09
2022-08-16T08:34:12.709Z,30.62
2022-08-16T08:36:40.281Z,31.02
2022-08-16T08:39:12.878Z,31.46
2022-08-16T08:41:42.734Z,31.78
2022-08-16T08:44:29.174Z,32.14
2022-08-16T08:47:01.880Z,32.63
2022-08-16T08:49:50.393Z,32.96
2022-08-16T08:52:34.515Z,33.04
2022-08-16T08:55:11.710Z,33.21
2022-08-16T08:57:42.537Z,33.46
2022-08-16T09:00:14.130Z,33.52
2022-08-16T09:02:52.176Z,33.23
2022-08-16T09:05:25.033Z,33.22
2022-08-16T09:08:05.751Z,33.30
2022-08-16T09:10:34.118Z,33.50
2022-08-16T09:13:08.017Z,33.67
2022-08-16T09:15:38.002Z,33.67
2022-08-16T09:18:24.722Z,33.82
2022-08-16T09:20:59.452Z,33.78
2022-08-16T09:23:29.876Z,33.88
2022-08-16T09:26:00.324Z,33.83
2022-08-16T09:29:13.795Z,33.97
2022-08-16T09:31:18.520Z,34.16
2022-08-16T09:33:51.837Z,34.23
2022-08-16T09:36:32.196Z,34.30
2022-08-16T09:39:02.586Z,34.47
2022-08-16T09:41:30.862Z,34.75
2022-08-16T09:44:02.400Z,34.88
2022-08-16T09:46:49.636Z,34.91
2022-08-16T09:49:19.707Z,34.85
2022-08-16T09:51:53.816Z,34.77
2022-08-16T09:54:24.220Z,34.98
2022-08-16T09:57:03.021Z,35.10
2022-08-16T09:59:38.695Z,35.10
2022-08-16T10:02:26.747Z,34.94
2022-08-16T10:04:58.974Z,34.81
2022-08-16T10:07:43.955Z,34.94
2022-08-16T10:10:18.816Z,34.95
2022-08-16T10:13:12.730Z,35.17
2022-08-16T10:15:47.047Z,35.25
2022-08-16T10:18:54.047Z,35.31
2022-08-16T10:21:10.667Z,35.09
2022-08-16T10:23:37.834Z,34.96
2022-08-16T10:27:17.252Z,34.86
2022-08-16T10:28:53.889Z,35.03
2022-08-16T10:31:43.578Z,34.76
2022-08-16T10:34:23.986Z,34.87
2022-08-16T10:36:56.151Z,34.87
2022-08-16T10:39:23.528Z,35.05
2022-08-16T10:41:51.667Z,35.04
2022-08-16T10:44:19.010Z,35.13
2022-08-16T10:46:46.217Z,35.34
2022-08-16T10:49:18.296Z,35.45
2022-08-16T10:52:01.434Z,35.63
2022-08-16T10:54:32.071Z,35.62
2022-08-16T10:57:04.257Z,35.67
2022-08-16T10:59:46.878Z,35.81
2022-08-16T11:02:57.653Z,35.78
2022-08-16T11:05:16.594Z,35.60
2022-08-16T11:07:51.951Z,35.60
2022-08-16T11:16:26.576Z,35.03
2022-08-16T11:19:03.715Z,34.96
2022-08-16T11:21:35.154Z,34.53
2022-08-16T11:24:02.577Z,34.41
2022-08-16T11:26:30.306Z,34.46
2022-08-16T11:29:14.969Z,34.63
2022-08-16T11:31:45.924Z,34.73
2022-08-16T11:34:21.767Z,34.81
2022-08-16T11:36:53.755Z,34.80
2022-08-16T11:39:27.684Z,34.94
2022-08-16T11:41:55.786Z,35.02
2022-08-16T11:44:51.961Z,35.14
2022-08-16T11:47:10.208Z,35.20
2022-08-16T11:49:37.489Z,35.19
2022-08-16T11:52:05.461Z,35.18
2022-08-16T11:54:36.211Z,35.33
2022-08-16T11:57:09.032Z,35.18
2022-08-16T11:59:39.825Z,35.13
2022-08-16T12:02:31.565Z,35.07
2022-08-16T12:04:56.204Z,34.88
2022-08-16T12:07:24.151Z,34.89
2022-08-16T12:09:53.507Z,35.00
2022-08-16T12:12:23.620Z,35.15
2022-08-16T12:14:59.919Z,35.07
2022-08-16T12:17:31.723Z,35.12
2022-08-16T12:20:01.019Z,35.06
2022-08-16T12:22:29.076Z,35.21
2022-08-16T12:24:56.738Z,35.41
2022-08-16T12:27:25.964Z,35.38
2022-08-16T12:29:54.200Z,35.15
2022-08-16T12:32:35.602Z,34.52
2022-08-16T12:35:12.510Z,34.13
2022-08-16T12:37:42.694Z,33.84
2022-08-16T12:40:24.955Z,33.85
2022-08-16T12:42:59.946Z,33.90
2022-08-16T12:45:35.690Z,34.06
2022-08-16T12:48:34.485Z,33.85
2022-08-16T12:51:13.404Z,33.58
2022-08-16T12:53:48.482Z,33.33
2022-08-16T12:56:18.874Z,33.15
2022-08-16T12:58:51.738Z,33.02
2022-08-16T13:01:26.931Z,32.89
2022-08-16T13:04:12.303Z,32.89
2022-08-16T13:06:48.781Z,33.02
2022-08-16T13:09:26.657Z,33.37
2022-08-16T13:12:01.863Z,33.74
2022-08-16T13:14:39.663Z,33.94
2022-08-16T13:17:17.007Z,34.13
2022-08-16T13:22:36.753Z,34.49
2022-08-16T13:25:08.893Z,34.37
2022-08-16T13:28:02.404Z,34.10
2022-08-16T13:30:36.375Z,33.76
2022-08-16T13:33:11.432Z,33.62
2022-08-16T13:35:45.323Z,33.73
2022-08-16T13:38:21.571Z,33.87
2022-08-16T13:40:57.268Z,33.90
2022-08-16T13:43:26.882Z,33.91
2022-08-16T13:45:56.411Z,34.05
2022-08-16T13:48:26.323Z,34.17
2022-08-16T13:51:10.340Z,34.31
2022-08-16T13:53:54.385Z,34.29
2022-08-16T13:56:37.061Z,34.16
2022-08-16T13:59:14.286Z,34.07
2022-08-16T14:01:47.499Z,33.83
2022-08-16T14:04:29.107Z,33.72
2022-08-16T14:06:58.209Z,33.63
2022-08-16T14:09:27.044Z,33.67
2022-08-16T14:11:54.957Z,33.79
2022-08-16T14:14:29.181Z,33.91
2022-08-16T14:17:02.182Z,34.10
2022-08-16T14:19:30.159Z,34.17
2022-08-16T14:22:14.305Z,34.19
2022-08-16T14:24:46.693Z,34.01
2022-08-16T14:27:19.561Z,33.65
2022-08-16T14:29:49.987Z,33.65
2022-08-16T14:32:34.116Z,33.65
2022-08-16T14:35:10.259Z,33.71
2022-08-16T14:37:39.172Z,33.69
2022-08-16T14:40:12.748Z,33.79
2022-08-16T14:43:07.035Z,33.82
2022-08-16T14:45:35.125Z,33.83
2022-08-16T14:48:02.297Z,33.91
2022-08-16T14:50:30.026Z,33.87
2022-08-16T14:53:01.110Z,33.76
2022-08-16T14:55:32.892Z,33.79
2022-08-16T14:58:00.360Z,33.79
2022-08-16T15:00:33.855Z,33.62
2022-08-16T15:03:09.745Z,33.35
2022-08-16T15:05:39.585Z,33.13
2022-08-16T15:08:07.579Z,33.05
2022-08-16T15:10:37.413Z,33.11
2022-08-16T15:13:09.882Z,33.16
2022-08-16T15:15:38.159Z,33.18
2022-08-16T15:18:07.078Z,33.14
2022-08-16T15:20:39.201Z,33.04
2022-08-16T15:23:09.085Z,32.77
2022-08-16T15:26:02.666Z,32.53
2022-08-16T15:28:37.950Z,32.31
2022-08-16T15:31:13.206Z,32.11
2022-08-16T15:34:05.878Z,31.88
2022-08-16T15:36:33.429Z,31.73
2022-08-16T15:39:06.919Z,31.57
2022-08-16T15:41:48.094Z,31.28
2022-08-16T15:44:22.225Z,31.07
2022-08-16T15:46:54.946Z,30.91
2022-08-16T15:49:34.588Z,30.66
2022-08-16T15:52:32.382Z,30.48
2022-08-16T15:55:13.192Z,30.25
2022-08-16T15:57:52.062Z,30.11
2022-08-16T16:00:21.291Z,29.94
2022-08-16T16:02:49.914Z,29.83
2022-08-16T16:05:19.643Z,29.70
2022-08-16T16:08:11.718Z,29.54
2022-08-16T16:10:43.560Z,29.40
2022-08-16T16:13:21.725Z,29.21
2022-08-16T16:15:56.213Z,29.05
2022-08-16T16:18:26.893Z,28.90
2022-08-16T16:21:01.494Z,28.75
2022-08-16T16:23:34.342Z,28.63
2022-08-16T16:26:05.854Z,28.51
2022-08-16T16:29:07.937Z,28.41
2022-08-16T16:31:22.955Z,28.27
2022-08-16T16:34:01.060Z,28.19
2022-08-16T16:36:32.593Z,28.09
2022-08-16T16:39:06.905Z,27.99
2022-08-16T16:41:35.620Z,27.87
2022-08-16T16:44:04.777Z,27.78
2022-08-16T16:46:42.596Z,27.70
2022-08-16T16:49:14.136Z,27.53
2022-08-16T16:51:44.766Z,27.39
2022-08-16T16:54:27.643Z,27.24
2022-08-16T16:56:56.564Z,27.14
2022-08-16T16:59:25.806Z,27.08
2022-08-16T17:02:00.530Z,26.94
2022-08-16T17:04:43.849Z,26.80
2022-08-16T17:07:12.392Z,26.64
2022-08-16T17:09:41.025Z,26.46
2022-08-16T17:12:22.642Z,26.37
2022-08-16T17:14:56.724Z,26.21
2022-08-16T17:17:24.725Z,26.19
2022-08-16T17:19:52.363Z,26.10
2022-08-16T17:22:22.609Z,25.87
2022-08-16T17:24:52.813Z,25.68
2022-08-16T17:27:33.954Z,25.59
2022-08-16T17:30:19.483Z,25.41
2022-08-16T17:32:55.006Z,25.34
2022-08-16T17:35:37.512Z,25.36
2022-08-16T17:38:12.357Z,25.29
2022-08-16T17:43:44.332Z,25.05
2022-08-16T17:46:50.569Z,24.86
2022-08-16T17:49:00.998Z,24.63
2022-08-16T17:51:29.260Z,24.51
2022-08-16T17:53:57.182Z,24.49
2022-08-16T17:56:24.502Z,24.37
2022-08-16T17:58:52.254Z,24.38
2022-08-16T18:01:24.241Z,24.28
2022-08-16T18:04:07.678Z,24.28
2022-08-16T18:06:38.328Z,24.15
2022-08-16T18:09:07.261Z,24.09
2022-08-16T18:11:40.981Z,24.09
2022-08-16T18:14:09.667Z,23.95
2022-08-16T18:16:36.919Z,23.84
2022-08-16T18:19:04.100Z,23.76
2022-08-16T18:21:51.735Z,23.79
2022-08-16T18:24:24.416Z,23.66
2022-08-16T18:26:51.961Z,23.44
2022-08-16T18:29:20.926Z,23.41
2022-08-16T18:31:51.174Z,23.31
2022-08-16T18:34:23.576Z,23.24
2022-08-16T18:36:52.346Z,23.15
2022-08-16T18:39:19.513Z,23.07
2022-08-16T18:41:50.340Z,22.95
2022-08-16T18:44:26.577Z,22.91
2022-08-16T18:46:55.245Z,22.92
2022-08-16T18:49:22.707Z,22.91
2022-08-16T18:51:51.150Z,22.76
2022-08-16T18:54:18.751Z,22.66
2022-08-16T18:56:56.850Z,22.63
2022-08-16T18:59:29.227Z,22.61
2022-08-16T19:02:04.452Z,22.49
2022-08-16T19:04:57.397Z,22.34
2022-08-16T19:07:30.703Z,22.24
2022-08-16T19:09:59.738Z,22.18
2022-08-16T19:12:37.804Z,22.22
2022-08-16T19:15:17.355Z,22.17
2022-08-16T19:17:46.151Z,22.20
2022-08-16T19:24:18.125Z,22.25
2022-08-16T19:26:52.725Z,22.15
2022-08-16T19:29:21.951Z,22.17
2022-08-16T19:31:53.999Z,22.06
2022-08-16T19:34:23.680Z,21.92
2022-08-16T19:36:51.942Z,21.90
2022-08-16T19:39:23.714Z,21.95
2022-08-16T19:41:53.473Z,22.00
2022-08-16T19:44:22.780Z,22.03
2022-08-16T19:46:51.246Z,22.00
2022-08-16T19:49:18.501Z,21.87
2022-08-16T19:51:48.569Z,21.91
2022-08-16T19:54:16.816Z,21.88
2022-08-16T19:56:44.476Z,21.86
2022-08-16T19:59:21.163Z,21.89
2022-08-16T20:01:52.609Z,21.84
2022-08-16T20:04:21.927Z,21.89
2022-08-16T20:06:49.638Z,21.87
2022-08-16T20:09:16.558Z,21.86
2022-08-16T20:11:48.311Z,21.78
2022-08-16T20:14:24.008Z,21.71
2022-08-16T20:16:53.979Z,21.73
2022-08-16T20:19:24.646Z,21.66
2022-08-16T20:21:52.618Z,21.63
2022-08-16T20:24:34.628Z,21.57
2022-08-16T20:27:09.889Z,21.53
2022-08-16T20:29:39.109Z,21.59
2022-08-16T20:32:08.834Z,21.58
2022-08-16T20:34:36.565Z,21.59
2022-08-16T20:37:05.513Z,21.52
2022-08-16T20:39:33.486Z,21.50
2022-08-16T20:42:00.619Z,21.54
2022-08-16T20:44:27.896Z,21.48
2022-08-16T20:46:55.237Z,21.50
2022-08-16T20:49:22.339Z,21.52
2022-08-16T20:51:54.638Z,21.47
2022-08-16T20:54:23.497Z,21.42
2022-08-16T20:56:50.928Z,21.37
2022-08-16T20:59:18.153Z,21.34
2022-08-16T21:01:49.932Z,21.31
2022-08-16T21:04:24.026Z,21.33
2022-08-16T21:06:54.402Z,21.24
2022-08-16T21:09:24.706Z,21.20
2022-08-16T21:11:54.734Z,21.18
2022-08-16T21:14:22.829Z,21.05
2022-08-16T21:16:50.637Z,21.01
2022-08-16T21:19:17.889Z,21.06
2022-08-16T21:21:45.138Z,21.01
2022-08-16T21:24:12.710Z,20.88
2022-08-16T21:26:39.848Z,20.79
2022-08-16T21:29:11.291Z,20.71
2022-08-16T21:31:43.422Z,20.66
2022-08-16T21:34:10.541Z,20.64
2022-08-16T21:36:37.724Z,20.62
2022-08-16T21:39:06.833Z,20.50
2022-08-16T21:41:35.872Z,20.45
2022-08-16T21:44:03.207Z,20.40
2022-08-16T21:46:30.447Z,20.41
2022-08-16T21:48:57.767Z,20.40
2022-08-16T21:51:24.941Z,20.30
2022-08-16T21:53:52.061Z,20.29
2022-08-16T21:56:19.472Z,20.22
2022-08-16T21:58:53.176Z,20.14
2022-08-16T22:01:23.680Z,20.04
2022-08-16T22:04:36.049Z,20.04
2022-08-16T22:06:41.846Z,19.98
2022-08-16T22:09:11.662Z,19.95
2022-08-16T22:11:38.926Z,19.91
2022-08-16T22:14:06.113Z,19.94
2022-08-16T22:16:36.817Z,19.96
2022-08-16T22:19:05.479Z,19.90
2022-08-16T22:21:33.611Z,19.80
2022-08-16T22:24:00.883Z,19.80
2022-08-16T22:26:31.750Z,19.82
2022-08-16T22:29:09.023Z,19.79
2022-08-16T22:31:38.893Z,19.67
2022-08-16T22:34:11.907Z,19.71
2022-08-16T22:36:39.822Z,19.52
2022-08-16T22:39:09.728Z,19.46
2022-08-16T22:41:38.975Z,19.33
2022-08-16T22:44:07.299Z,19.33
2022-08-16T22:46:36.765Z,19.35
2022-08-16T22:49:09.453Z,19.32
2022-08-16T22:51:37.725Z,19.32
2022-08-16T22:54:43.935Z,19.35
2022-08-16T22:56:53.745Z,19.32
2022-08-16T22:59:22.590Z,19.23
2022-08-16T23:01:49.979Z,19.19
2022-08-16T23:04:17.369Z,19.09
2022-08-16T23:06:47.267Z,19.10
2022-08-16T23:09:14.484Z,19.08
2022-08-16T23:11:41.531Z,19.04
2022-08-16T23:14:08.728Z,19.09
2022-08-16T23:16:35.995Z,18.94
2022-08-16T23:19:05.998Z,18.91
2022-08-16T23:21:34.273Z,18.85
2022-08-16T23:24:01.881Z,18.84
2022-08-16T23:26:43.788Z,18.85
2022-08-16T23:29:23.516Z,18.90
2022-08-16T23:31:56.400Z,18.88
2022-08-16T23:34:24.443Z,18.91
2022-08-16T23:36:51.966Z,18.80
2022-08-16T23:39:19.274Z,18.76
2022-08-16T23:41:46.544Z,18.70
2022-08-16T23:44:57.469Z,18.64
2022-08-16T23:47:00.948Z,18.58
2022-08-16T23:49:57.856Z,18.60
2022-08-16T23:52:15.470Z,18.54
2022-08-16T23:54:42.811Z,18.55
2022-08-16T23:57:09.914Z,18.59
2022-08-16T23:59:52.288Z,18.58
